Time;durP1;ratioP1;P1;durP2;ratioP2;P2;SDS_P1;SDS_P2;PMS_P1;PMS_P2;Temp;Humidity;BMP_temperature;BMP_pressure;BME280_temperature;BME280_humidity;BME280_pressure;Samples;Min_cycle;Max_cycle;Signal;HPM_P1;HPM_P2
2023/04/30 00:03:13;;;;;;;25.43;19.73;;;8.00;99.90;;;;;;8316139;28;20190;-68
2023/04/30 00:07:31;;;;;;;24.33;19.27;;;7.90;99.90;;;;;;8292349;28;20191;-67
2023/04/30 00:11:34;;;;;;;29.83;20.03;;;7.80;99.90;;;;;;8293687;28;20186;-67
2023/04/30 00:15:36;;;;;;;20.77;16.40;;;7.80;99.90;;;;;;8294007;28;20215;-69
2023/04/30 00:19:37;;;;;;;24.53;18.47;;;7.70;99.90;;;;;;8293448;28;20187;-66
2023/04/30 00:24:19;;;;;;;27.97;20.73;;;7.70;99.90;;;;;;8317179;28;20194;-66
2023/04/30 00:28:20;;;;;;;31.53;22.33;;;7.70;99.90;;;;;;8288070;28;20201;-66
2023/04/30 00:32:21;;;;;;;30.17;22.27;;;7.80;99.90;;;;;;8296508;28;20229;-66
2023/04/30 00:36:30;;;;;;;28.70;21.83;;;7.80;99.90;;;;;;8310431;28;20209;-64
2023/04/30 00:40:36;;;;;;;29.70;21.37;;;7.80;99.90;;;;;;8303475;28;20199;-66
2023/04/30 00:49:13;;;;;;;30.87;22.83;;;7.80;99.90;;;;;;8314625;28;20198;-66
2023/04/30 00:53:15;;;;;;;35.70;26.03;;;7.80;99.90;;;;;;8303175;28;20195;-65
2023/04/30 00:57:17;;;;;;;34.93;25.77;;;7.80;99.90;;;;;;8314669;28;20210;-66
2023/04/30 01:01:27;;;;;;;36.13;24.37;;;7.80;99.90;;;;;;8317687;28;20193;-65
2023/04/30 01:05:28;;;;;;;32.93;25.00;;;7.80;99.90;;;;;;8305769;28;20223;-65
2023/04/30 01:09:30;;;;;;;32.73;25.57;;;7.80;99.90;;;;;;8306208;28;20187;-67
2023/04/30 01:13:59;;;;;;;33.00;25.47;;;7.80;99.90;;;;;;8309987;28;20202;-67
2023/04/30 01:18:03;;;;;;;32.73;23.93;;;7.80;99.90;;;;;;8294684;28;20226;-67
2023/04/30 01:22:07;;;;;;;27.00;22.33;;;7.70;99.90;;;;;;8298213;28;20210;-68
2023/04/30 01:26:31;;;;;;;32.83;23.70;;;7.70;99.90;;;;;;8302037;28;20194;-68
2023/04/30 01:30:39;;;;;;;32.03;23.23;;;7.60;99.90;;;;;;8309778;28;20195;-67
2023/04/30 01:34:40;;;;;;;33.10;22.97;;;7.60;99.90;;;;;;8319279;28;20231;-67
2023/04/30 01:39:03;;;;;;;29.27;23.67;;;7.60;99.90;;;;;;8295609;28;20262;-66
2023/04/30 01:43:13;;;;;;;32.33;25.00;;;7.50;99.90;;;;;;8305772;28;20178;-66
2023/04/30 01:47:35;;;;;;;31.43;24.13;;;7.50;99.90;;;;;;8324233;28;20201;-66
2023/04/30 01:51:48;;;;;;;34.80;25.20;;;7.40;99.90;;;;;;8291469;28;20289;-67
2023/04/30 01:56:01;;;;;;;34.13;24.90;;;7.40;99.90;;;;;;8296544;28;20281;-65
2023/04/30 02:00:09;;;;;;;36.40;25.63;;;7.30;99.90;;;;;;8303037;28;20194;-68
2023/04/30 02:04:20;;;;;;;37.50;27.47;;;7.30;99.90;;;;;;8321373;28;20189;-70
2023/04/30 02:08:21;;;;;;;38.47;26.50;;;7.30;99.90;;;;;;8305110;28;20194;-70
2023/04/30 02:12:26;;;;;;;39.00;27.53;;;7.30;99.90;;;;;;8295640;28;20250;-69
2023/04/30 02:16:30;;;;;;;39.33;27.53;;;7.30;99.90;;;;;;8314262;28;20206;-68
2023/04/30 02:20:34;;;;;;;37.50;28.27;;;7.30;99.90;;;;;;8303426;28;20195;-68
2023/04/30 02:24:38;;;;;;;37.47;28.17;;;7.30;99.90;;;;;;8299374;28;20178;-68
2023/04/30 02:28:39;;;;;;;34.60;25.80;;;7.30;99.90;;;;;;8294999;28;20186;-68
2023/04/30 02:32:43;;;;;;;31.47;24.67;;;7.20;99.90;;;;;;8294238;28;20178;-68
2023/04/30 02:36:55;;;;;;;32.03;23.60;;;7.20;99.90;;;;;;8292460;28;20226;-68
2023/04/30 02:40:56;;;;;;;30.70;22.50;;;7.10;99.90;;;;;;8292300;28;20261;-67
2023/04/30 02:45:04;;;;;;;31.83;23.53;;;7.00;99.90;;;;;;8306351;28;20191;-66
2023/04/30 02:49:05;;;;;;;27.73;21.13;;;6.90;99.90;;;;;;8295927;28;20201;-67
2023/04/30 02:53:13;;;;;;;23.07;19.00;;;6.90;99.90;;;;;;8295509;28;20200;-67
2023/04/30 02:57:18;;;;;;;23.67;19.20;;;6.80;99.90;;;;;;8292421;28;20202;-67
2023/04/30 03:01:25;;;;;;;27.10;19.83;;;6.60;99.90;;;;;;8295658;28;20246;-67
2023/04/30 03:05:29;;;;;;;23.27;18.67;;;6.60;99.90;;;;;;8296009;28;20198;-66
2023/04/30 03:09:34;;;;;;;22.23;18.50;;;6.70;99.90;;;;;;8293100;28;20190;-67
2023/04/30 03:13:37;;;;;;;26.37;19.53;;;6.70;99.90;;;;;;8304962;28;20202;-65
2023/04/30 03:17:38;;;;;;;23.57;19.90;;;6.70;99.90;;;;;;8291501;28;20218;-66
2023/04/30 03:21:40;;;;;;;23.53;19.50;;;6.70;99.90;;;;;;8299723;28;20276;-66
2023/04/30 03:25:41;;;;;;;26.47;19.87;;;6.70;99.90;;;;;;8309850;28;20186;-65
2023/04/30 03:29:42;;;;;;;26.20;19.07;;;6.70;99.90;;;;;;8290870;28;20198;-66
2023/04/30 03:34:17;;;;;;;27.17;18.53;;;6.70;99.90;;;;;;8291460;28;20193;-66
2023/04/30 03:38:27;;;;;;;22.40;18.90;;;6.70;99.90;;;;;;8289894;28;20223;-66
2023/04/30 03:42:34;;;;;;;23.77;17.73;;;6.70;99.90;;;;;;8306676;28;20270;-65
2023/04/30 03:46:44;;;;;;;21.53;17.43;;;6.80;99.90;;;;;;8291419;28;20221;-66
2023/04/30 03:50:45;;;;;;;22.87;17.40;;;6.80;99.90;;;;;;8303876;28;20238;-65
2023/04/30 03:54:46;;;;;;;23.47;17.40;;;6.80;99.90;;;;;;8286371;28;20199;-66
2023/04/30 03:58:50;;;;;;;24.00;16.97;;;6.70;99.90;;;;;;8293697;28;20248;-66
2023/04/30 04:02:54;;;;;;;25.63;16.67;;;6.80;99.90;;;;;;8300294;28;20192;-66
2023/04/30 04:07:06;;;;;;;22.10;13.10;;;6.80;99.90;;;;;;8303127;28;20222;-66
2023/04/30 04:11:09;;;;;;;15.57;11.87;;;6.80;99.90;;;;;;8307994;28;20213;-66
2023/04/30 04:15:13;;;;;;;13.97;9.63;;;6.90;99.90;;;;;;8307993;28;20211;-67
2023/04/30 04:19:17;;;;;;;9.80;7.37;;;7.20;99.90;;;;;;8325714;28;20309;-65
2023/04/30 04:23:18;;;;;;;9.03;7.33;;;7.40;99.90;;;;;;8308768;28;20343;-65
2023/04/30 04:27:22;;;;;;;11.40;6.87;;;7.30;99.90;;;;;;8318469;28;20183;-65
2023/04/30 04:31:23;;;;;;;9.60;6.43;;;7.50;99.90;;;;;;8328215;28;20193;-66
2023/04/30 04:35:29;;;;;;;7.10;5.17;;;7.80;99.90;;;;;;8322524;28;20213;-65
2023/04/30 04:39:36;;;;;;;7.33;5.53;;;8.00;99.90;;;;;;8302287;28;20230;-66
2023/04/30 04:43:37;;;;;;;10.30;5.33;;;8.20;1.00;;;;;;8304042;28;20185;-65
2023/04/30 04:47:38;;;;;;;7.87;5.10;;;8.30;1.00;;;;;;8307192;28;20197;-65
2023/04/30 04:51:40;;;;;;;7.43;5.40;;;8.30;1.00;;;;;;8316698;28;20202;-65
2023/04/30 04:55:40;;;;;;;11.20;6.43;;;8.30;1.00;;;;;;8300883;28;20211;-64
2023/04/30 04:59:42;;;;;;;10.90;7.30;;;8.10;1.00;;;;;;8299407;28;20218;-64
2023/04/30 05:03:43;;;;;;;11.33;6.83;;;7.90;99.90;;;;;;8301691;28;20186;-65
2023/04/30 05:07:44;;;;;;;11.27;6.77;;;7.70;99.90;;;;;;8305124;28;20191;-65
2023/04/30 05:11:47;;;;;;;9.47;7.30;;;7.60;99.90;;;;;;8305690;28;20218;-65
2023/04/30 05:16:01;;;;;;;12.93;6.80;;;7.60;99.90;;;;;;8304053;28;20211;-69
2023/04/30 05:20:06;;;;;;;10.27;6.70;;;7.60;99.90;;;;;;8303375;28;20206;-68
2023/04/30 05:24:07;;;;;;;10.07;6.37;;;7.70;99.90;;;;;;8304938;28;20191;-70
2023/04/30 05:28:17;;;;;;;9.37;5.87;;;7.60;99.90;;;;;;8302489;28;20187;-69
2023/04/30 05:32:26;;;;;;;7.87;5.50;;;7.70;99.90;;;;;;8301263;28;20226;-69
2023/04/30 05:36:36;;;;;;;7.67;6.00;;;7.80;99.90;;;;;;8314771;28;20210;-70
2023/04/30 05:40:38;;;;;;;7.80;5.00;;;7.80;99.90;;;;;;8298341;28;20206;-68
2023/04/30 05:44:52;;;;;;;8.17;5.30;;;8.00;14.10;;;;;;8303482;28;20179;-69
2023/04/30 05:48:56;;;;;;;7.37;4.47;;;8.10;1.00;;;;;;8301205;28;20179;-70
2023/04/30 05:53:20;;;;;;;5.80;4.67;;;8.10;1.00;;;;;;8302522;28;20190;-70
2023/04/30 05:57:21;;;;;;;7.00;4.23;;;8.00;1.00;;;;;;8303791;28;20252;-69
2023/04/30 06:01:28;;;;;;;10.07;4.53;;;7.90;1.00;;;;;;8302603;28;20191;-68
2023/04/30 06:05:29;;;;;;;9.13;4.27;;;8.10;99.90;;;;;;8304499;28;20187;-67
2023/04/30 06:09:30;;;;;;;7.53;4.00;;;8.40;99.90;;;;;;8299458;28;20187;-68
2023/04/30 06:13:31;;;;;;;8.40;3.77;;;8.70;99.90;;;;;;8305221;28;20182;-69
2023/04/30 06:17:35;;;;;;;5.30;3.57;;;8.80;99.90;;;;;;8293206;28;20234;-68
2023/04/30 06:21:37;;;;;;;4.80;3.43;;;9.10;99.90;;;;;;8317334;28;20198;-69
2023/04/30 06:25:44;;;;;;;9.33;3.70;;;9.20;99.90;;;;;;8303744;28;20194;-69
2023/04/30 06:29:45;;;;;;;8.10;3.03;;;9.40;99.90;;;;;;8297240;28;20191;-69
2023/04/30 06:34:01;;;;;;;5.87;3.10;;;9.50;99.90;;;;;;8299904;28;20249;-69
2023/04/30 06:38:04;;;;;;;7.13;2.73;;;9.40;99.90;;;;;;8303687;28;20210;-67
2023/04/30 06:42:14;;;;;;;5.27;3.00;;;9.40;99.90;;;;;;8300751;28;20191;-69
2023/04/30 06:46:39;;;;;;;7.70;2.77;;;9.70;99.90;;;;;;8306487;28;20264;-69
2023/04/30 06:50:43;;;;;;;5.50;2.80;;;9.90;94.60;;;;;;8300755;28;20191;-66
2023/04/30 06:54:47;;;;;;;5.77;3.10;;;10.10;63.60;;;;;;8302617;28;20217;-68
2023/04/30 06:58:51;;;;;;;5.07;2.67;;;10.00;83.80;;;;;;8296104;28;20219;-67
2023/04/30 07:02:52;;;;;;;6.77;2.93;;;10.00;77.20;;;;;;8297427;28;20248;-69
2023/04/30 07:06:56;;;;;;;6.83;3.10;;;10.00;99.90;;;;;;8315931;28;20285;-67
2023/04/30 07:10:58;;;;;;;6.17;2.53;;;9.90;99.90;;;;;;8300796;28;20333;-67
2023/04/30 07:14:59;;;;;;;5.77;1.87;;;9.70;99.90;;;;;;8300708;28;20288;-67
2023/04/30 07:19:03;;;;;;;3.97;2.70;;;9.80;65.30;;;;;;8308380;28;20240;-68
2023/04/30 07:23:07;;;;;;;8.90;2.67;;;10.00;40.80;;;;;;8305238;28;20220;-66
2023/04/30 07:27:10;;;;;;;6.27;3.20;;;10.30;17.70;;;;;;8301888;28;20238;-67
2023/04/30 07:31:22;;;;;;;7.03;2.93;;;10.60;11.70;;;;;;8299398;28;20185;-68
2023/04/30 07:35:23;;;;;;;4.07;2.23;;;10.70;25.50;;;;;;8233453;28;20209;-66
2023/04/30 07:39:30;;;;;;;5.50;2.33;;;11.00;16.20;;;;;;8215790;28;20194;-68
2023/04/30 07:43:34;;;;;;;6.23;2.50;;;11.60;21.10;;;;;;8218926;28;20221;-66
2023/04/30 07:47:38;;;;;;;4.50;2.10;;;11.80;1.00;;;;;;8232355;28;20226;-65
2023/04/30 07:51:42;;;;;;;4.47;2.07;;;11.00;16.50;;;;;;8217002;28;20229;-66
2023/04/30 07:55:51;;;;;;;6.60;1.90;;;10.80;3.90;;;;;;8220114;28;20210;-65
2023/04/30 07:59:56;;;;;;;7.53;2.03;;;10.60;8.30;;;;;;8218217;28;20192;-66
2023/04/30 08:04:26;;;;;;;3.93;1.70;;;10.60;1.00;;;;;;8230347;28;20300;-67
2023/04/30 08:08:27;;;;;;;3.73;1.40;;;10.70;1.00;;;;;;8217449;28;20206;-66
2023/04/30 08:12:31;;;;;;;5.87;2.17;;;10.70;1.00;;;;;;8225577;28;20229;-66
2023/04/30 08:16:36;;;;;;;7.47;2.00;;;10.70;1.00;;;;;;8209301;28;20287;-65
2023/04/30 08:20:58;;;;;;;5.53;2.03;;;10.90;1.00;;;;;;8212251;28;20236;-66
2023/04/30 08:25:01;;;;;;;4.73;2.27;;;11.10;1.00;;;;;;8241269;28;20244;-66
2023/04/30 08:29:02;;;;;;;7.37;2.10;;;11.10;1.00;;;;;;8287822;28;20180;-64
2023/04/30 08:33:07;;;;;;;3.00;2.00;;;11.40;1.00;;;;;;8302785;28;20256;-64
2023/04/30 08:37:08;;;;;;;4.43;1.80;;;11.50;1.00;;;;;;8283830;28;20202;-66
2023/04/30 08:41:14;;;;;;;6.67;2.47;;;11.50;1.00;;;;;;8289904;28;20279;-65
2023/04/30 08:45:18;;;;;;;5.43;2.60;;;11.60;1.00;;;;;;8303884;28;20190;-66
2023/04/30 08:49:24;;;;;;;4.73;1.70;;;11.50;1.00;;;;;;8289145;28;20308;-66
2023/04/30 08:53:26;;;;;;;5.83;2.20;;;11.30;1.00;;;;;;8289958;28;20188;-67
2023/04/30 08:57:27;;;;;;;3.13;1.57;;;11.40;1.00;;;;;;8295822;28;20209;-65
2023/04/30 09:01:29;;;;;;;5.40;2.27;;;11.30;1.00;;;;;;8290051;28;20184;-67
2023/04/30 09:05:30;;;;;;;5.60;1.90;;;11.50;1.00;;;;;;8296987;28;20275;-66
2023/04/30 09:09:40;;;;;;;5.33;2.13;;;11.70;1.00;;;;;;8308954;28;20274;-66
2023/04/30 09:13:41;;;;;;;3.57;1.90;;;12.00;1.00;;;;;;8295362;28;20193;-65
2023/04/30 09:17:42;;;;;;;3.63;2.10;;;11.80;1.00;;;;;;8292707;28;20221;-65
2023/04/30 09:21:47;;;;;;;3.53;1.60;;;11.50;1.00;;;;;;8296715;28;20212;-66
2023/04/30 09:25:48;;;;;;;5.80;2.07;;;11.70;1.00;;;;;;8294005;28;20220;-68
2023/04/30 09:29:49;;;;;;;3.93;2.00;;;12.00;1.00;;;;;;8306467;28;20245;-67
2023/04/30 09:33:50;;;;;;;5.83;1.57;;;11.70;1.00;;;;;;8296329;28;20237;-67
2023/04/30 09:37:55;;;;;;;5.33;1.90;;;11.70;1.00;;;;;;8288008;28;20222;-66
2023/04/30 09:42:15;;;;;;;5.17;1.80;;;12.00;1.00;;;;;;8289862;28;20187;-64
2023/04/30 09:46:19;;;;;;;4.10;1.67;;;12.40;1.00;;;;;;8292487;28;20229;-66
2023/04/30 09:50:39;;;;;;;4.13;1.40;;;12.40;1.00;;;;;;8294007;28;20194;-66
2023/04/30 09:54:47;;;;;;;3.97;1.90;;;12.40;1.00;;;;;;8292522;28;20198;-70
2023/04/30 09:59:04;;;;;;;4.37;1.80;;;12.60;1.00;;;;;;8293671;28;20214;-68
2023/04/30 10:03:09;;;;;;;3.13;2.33;;;12.50;1.00;;;;;;8312332;28;20186;-69
2023/04/30 10:07:25;;;;;;;4.50;1.70;;;12.40;1.00;;;;;;8314660;28;20209;-69
2023/04/30 10:11:41;;;;;;;3.17;1.70;;;12.30;1.00;;;;;;8308854;28;20202;-66
2023/04/30 10:15:57;;;;;;;4.40;1.53;;;12.60;1.00;;;;;;8291331;28;20222;-67
2023/04/30 10:20:06;;;;;;;3.83;1.73;;;12.70;1.00;;;;;;8292383;28;20181;-66
2023/04/30 10:24:18;;;;;;;4.43;1.67;;;12.50;1.00;;;;;;8294660;28;20187;-66
2023/04/30 10:28:39;;;;;;;;;;;;;;;;;;;;;
2023/04/30 10:33:35;;;;;;;;;;;;;;;;;;;;;
2023/04/30 10:37:53;;;;;;;7.17;1.67;;;13.20;1.00;;;;;;8286273;28;20269;-65
2023/04/30 10:42:05;;;;;;;3.13;1.30;;;13.30;1.00;;;;;;8289791;28;20183;-65
2023/04/30 10:46:24;;;;;;;6.03;1.60;;;13.40;1.00;;;;;;8305449;28;20214;-66
2023/04/30 10:50:52;;;;;;;11.63;5.23;;;13.50;1.00;;;;;;8295680;28;20216;-66
2023/04/30 10:54:58;;;;;;;6.67;1.70;;;13.80;1.00;;;;;;8284556;28;20186;-66
2023/04/30 10:59:03;;;;;;;6.60;1.87;;;13.80;1.00;;;;;;8288170;28;20213;-65
2023/04/30 11:03:04;;;;;;;4.03;1.20;;;13.70;1.00;;;;;;8287252;28;20187;-65
2023/04/30 11:07:11;;;;;;;3.27;1.50;;;13.80;1.00;;;;;;8288213;28;20190;-67
2023/04/30 11:11:23;;;;;;;7.10;1.50;;;13.90;1.00;;;;;;8304539;28;20187;-65
2023/04/30 11:15:41;;;;;;;4.33;1.43;;;13.80;1.00;;;;;;8302310;28;20227;-65
2023/04/30 11:20:06;;;;;;;3.20;1.30;;;13.80;1.00;;;;;;8288683;28;20178;-66
2023/04/30 11:25:05;;;;;;;9.73;5.03;;;13.60;1.00;;;;;;8289681;28;20201;-67
2023/04/30 11:34:45;;;;;;;8.00;1.33;;;14.20;1.00;;;;;;8141147;28;20213;-70
2023/04/30 11:39:25;;;;;;;3.90;1.37;;;14.20;1.00;;;;;;8167337;28;20230;-66
2023/04/30 11:48:39;;;;;;;3.90;1.20;;;14.00;1.00;;;;;;8039465;28;20206;-65
2023/04/30 11:53:08;;;;;;;1.97;1.10;;;13.90;1.00;;;;;;8098108;28;20211;-68
2023/04/30 11:57:39;;;;;;;3.50;1.40;;;14.10;1.00;;;;;;8138322;28;20309;-69
2023/04/30 12:01:59;;;;;;;4.27;2.10;;;14.20;1.00;;;;;;8171946;28;20206;-66
2023/04/30 12:15:58;;;;;;;5.70;1.40;;;14.30;1.00;;;;;;8075062;28;20220;-66
2023/04/30 12:36:17;;;;;;;4.77;1.70;;;14.50;1.00;;;;;;7957953;29;20207;-65
2023/04/30 12:55:49;;;;;;;7.17;2.50;;;14.90;1.00;;;;;;7972604;29;20209;-65
2023/04/30 13:21:08;;;;;;;;;;;;;;;;;;;;;
2023/04/30 13:26:09;;;;;;;3.83;1.03;;;14.90;1.00;;;;;;7631900;30;20217;-66
2023/04/30 13:50:19;;;;;;;4.37;1.40;;;14.70;1.00;;;;;;9385822;22;18671627;-63
2023/04/30 13:55:10;;;;;;;2.30;1.13;;;14.80;1.00;;;;;;10209103;23;20185;-66
2023/04/30 14:10:39;;;;;;;2.47;1.33;;;15.20;1.00;;;;;;9916762;23;20175;-67
2023/04/30 14:15:34;;;;;;;3.23;1.50;;;15.30;1.00;;;;;;9646756;24;20277;-68
2023/04/30 14:20:11;;;;;;;5.00;1.10;;;15.40;1.00;;;;;;9791568;23;20188;-66
2023/04/30 14:24:30;;;;;;;4.13;1.20;;;15.30;1.00;;;;;;10100132;23;20172;-69
2023/04/30 14:29:00;;;;;;;1.77;0.97;;;14.90;1.00;;;;;;10182705;23;20185;-69
2023/04/30 14:38:20;;;;;;;1.90;1.00;;;15.20;1.00;;;;;;9998490;23;20164;-69
2023/04/30 14:42:59;;;;;;;2.50;1.17;;;15.20;1.00;;;;;;9972743;23;20165;-67
2023/04/30 14:52:43;;;;;;;3.33;1.23;;;15.20;1.00;;;;;;10204472;23;20204;-66
2023/04/30 14:56:52;;;;;;;3.73;1.50;;;15.20;1.00;;;;;;10227434;23;20166;-69
2023/04/30 15:01:30;;;;;;;5.97;3.87;;;15.40;1.00;;;;;;10196256;23;20158;-69
2023/04/30 15:06:18;;;;;;;6.40;3.03;;;15.50;1.00;;;;;;10212299;23;20158;-67
2023/04/30 15:10:57;;;;;;;;;;;;;;;;;;;;;
2023/04/30 15:15:31;;;;;;;21.23;9.30;;;15.30;1.00;;;;;;10222776;23;20182;-69
2023/04/30 15:20:13;;;;;;;4.37;1.27;;;15.30;1.00;;;;;;10073431;23;20158;-68
2023/04/30 15:24:23;;;;;;;2.80;1.20;;;15.00;1.00;;;;;;10210295;23;20154;-68
2023/04/30 15:28:43;;;;;;;4.53;1.47;;;15.00;1.00;;;;;;10210058;23;20201;-68
2023/04/30 15:32:53;;;;;;;4.20;1.27;;;15.00;1.00;;;;;;10211655;23;20208;-66
2023/04/30 15:37:23;;;;;;;2.70;1.10;;;15.10;1.00;;;;;;10207796;23;20162;-68
2023/04/30 15:42:19;;;;;;;4.67;1.93;;;15.10;1.00;;;;;;10189654;23;20162;-71
2023/04/30 15:46:40;;;;;;;3.63;1.50;;;15.20;1.00;;;;;;10010490;23;20227;-71
2023/04/30 15:50:41;;;;;;;2.60;1.30;;;15.20;1.00;;;;;;10235236;23;20154;-68
2023/04/30 15:54:42;;;;;;;2.97;1.50;;;15.10;1.00;;;;;;10184812;23;20186;-67
2023/04/30 15:58:43;;;;;;;2.67;1.03;;;15.00;1.00;;;;;;10190127;23;20165;-65
2023/04/30 16:02:47;;;;;;;4.33;1.63;;;14.80;1.00;;;;;;10204164;23;20165;-67
2023/04/30 16:06:55;;;;;;;19.27;8.37;;;14.80;1.00;;;;;;10243388;23;20166;-68
2023/04/30 16:11:00;;;;;;;16.60;6.90;;;14.80;1.00;;;;;;10256173;23;20162;-67
2023/04/30 16:15:03;;;;;;;4.73;2.63;;;14.90;1.00;;;;;;10261544;23;20232;-69
2023/04/30 16:19:06;;;;;;;3.60;1.90;;;14.90;1.00;;;;;;10206672;23;20204;-67
2023/04/30 16:23:10;;;;;;;2.03;1.37;;;15.00;1.00;;;;;;10109202;23;20164;-67
2023/04/30 16:27:11;;;;;;;5.97;1.53;;;14.80;1.00;;;;;;10112588;23;20167;-68
2023/04/30 16:31:14;;;;;;;5.13;2.40;;;14.60;1.00;;;;;;10110219;23;20224;-69
2023/04/30 16:35:15;;;;;;;4.67;1.40;;;14.60;1.00;;;;;;10108450;23;20155;-67
2023/04/30 16:39:19;;;;;;;4.90;2.70;;;14.60;1.00;;;;;;10105768;23;20160;-70
2023/04/30 16:43:22;;;;;;;4.60;2.10;;;14.60;1.00;;;;;;10059957;23;20262;-68
2023/04/30 16:47:24;;;;;;;5.37;2.60;;;14.50;1.00;;;;;;10073872;23;20190;-69
2023/04/30 16:51:31;;;;;;;5.97;1.90;;;14.50;1.00;;;;;;10044777;23;20187;-69
2023/04/30 16:55:33;;;;;;;4.53;1.80;;;14.50;1.00;;;;;;10045590;23;20187;-68
2023/04/30 16:59:40;;;;;;;2.60;1.80;;;14.40;1.00;;;;;;10056753;23;20203;-68
2023/04/30 17:08:22;;;;;;;9.40;6.23;;;14.30;1.00;;;;;;10036652;23;20167;-70
2023/04/30 17:13:12;;;;;;;14.40;8.60;;;14.20;1.00;;;;;;10101066;23;20190;-67
2023/04/30 17:17:13;;;;;;;13.27;7.93;;;14.20;1.00;;;;;;9948268;23;20176;-67
2023/04/30 17:21:20;;;;;;;27.27;17.47;;;14.10;1.00;;;;;;9987717;23;20223;-67
2023/04/30 17:25:21;;;;;;;5.77;3.40;;;13.90;1.00;;;;;;9942690;23;20204;-68
2023/04/30 17:29:22;;;;;;;7.73;4.07;;;13.90;1.00;;;;;;10003849;23;20164;-66
2023/04/30 17:33:25;;;;;;;4.10;2.40;;;13.90;1.00;;;;;;9970320;23;20183;-69
2023/04/30 17:37:29;;;;;;;9.70;4.30;;;14.30;1.00;;;;;;10016691;23;20430;-68
2023/04/30 17:41:31;;;;;;;7.00;4.30;;;14.70;1.00;;;;;;10004943;23;20179;-68
2023/04/30 17:45:32;;;;;;;12.37;7.33;;;15.10;1.00;;;;;;10027337;23;20172;-68
2023/04/30 17:49:33;;;;;;;13.73;6.30;;;15.50;1.00;;;;;;10121588;23;20170;-67
2023/04/30 17:53:34;;;;;;;8.53;4.70;;;15.40;1.00;;;;;;10125126;23;20185;-67
2023/04/30 17:57:35;;;;;;;8.23;6.00;;;15.40;1.00;;;;;;10136668;23;20159;-66
2023/04/30 18:01:38;;;;;;;9.70;6.73;;;15.30;1.00;;;;;;10154570;23;20186;-67
2023/04/30 18:05:41;;;;;;;7.77;6.40;;;15.10;1.00;;;;;;10156361;23;20167;-67
2023/04/30 18:09:42;;;;;;;7.80;6.20;;;14.60;1.00;;;;;;10132466;23;20167;-66
2023/04/30 18:13:43;;;;;;;9.23;5.03;;;13.90;1.00;;;;;;10096592;23;20198;-66
2023/04/30 18:17:49;;;;;;;5.43;3.53;;;13.10;1.00;;;;;;10096783;23;20175;-67
2023/04/30 18:22:03;;;;;;;5.37;3.40;;;12.40;1.00;;;;;;10103488;23;20168;-62
2023/04/30 18:26:11;;;;;;;4.63;2.47;;;11.70;1.00;;;;;;10086249;23;20160;-63
2023/04/30 18:30:12;;;;;;;4.13;2.10;;;11.00;1.00;;;;;;10100315;23;20171;-67
2023/04/30 18:34:13;;;;;;;5.70;2.33;;;10.50;1.00;;;;;;10094950;23;20201;-69
2023/04/30 18:38:14;;;;;;;3.77;2.23;;;10.00;1.00;;;;;;10101537;23;20159;-67
2023/04/30 18:42:23;;;;;;;2.93;1.90;;;9.60;1.00;;;;;;10155958;23;20157;-69
2023/04/30 18:46:27;;;;;;;3.83;2.40;;;9.30;1.00;;;;;;10149846;23;20181;-67
2023/04/30 18:50:28;;;;;;;4.00;2.90;;;8.90;1.00;;;;;;10157749;23;20155;-67
2023/04/30 18:54:29;;;;;;;3.90;2.63;;;8.60;1.00;;;;;;10156618;23;20219;-68
2023/04/30 18:58:34;;;;;;;4.63;2.63;;;8.30;1.00;;;;;;10105659;23;20195;-68
2023/04/30 19:02:38;;;;;;;4.27;2.87;;;8.10;1.00;;;;;;10077852;23;20159;-63
2023/04/30 19:06:53;;;;;;;;;;;;;;;;;;;;;
2023/04/30 19:16:13;;;;;;;;;;;;;;;;;;;;;
2023/04/30 19:20:24;;;;;;;5.27;3.80;;;7.10;26.40;;;;;;9884148;23;20256;-63
2023/04/30 19:25:25;;;;;;;5.70;3.60;;;6.80;41.20;;;;;;10044964;23;20241;-63
2023/04/30 19:29:34;;;;;;;5.73;3.43;;;6.70;54.30;;;;;;9925042;23;20164;-65
2023/04/30 19:33:51;;;;;;;7.33;4.03;;;6.50;68.50;;;;;;9973785;23;20261;-63
2023/04/30 19:38:27;;;;;;;6.60;3.77;;;6.30;84.30;;;;;;10024778;23;20171;-62
2023/04/30 19:48:22;;;;;;;11.27;5.93;;;6.00;99.90;;;;;;9960421;23;20198;-64
2023/04/30 19:52:39;;;;;;;9.03;5.63;;;5.90;99.90;;;;;;9914326;23;20231;-64
2023/04/30 20:07:17;;;;;;;;;;;;;;;;;;;;;
2023/04/30 20:16:23;;;;;;;11.67;6.10;;;5.10;99.90;;;;;;9689780;24;20184;-68
2023/04/30 20:25:12;;;;;;;10.87;5.63;;;4.90;99.90;;;;;;9694650;24;20394;-69
2023/04/30 20:29:34;;;;;;;12.40;6.33;;;4.70;99.90;;;;;;9715179;23;20253;-68
2023/04/30 20:34:12;;;;;;;;;;;;;;;;;;;;;
2023/04/30 20:38:34;;;;;;;12.10;7.33;;;4.50;99.90;;;;;;9967568;23;20267;-69
2023/04/30 20:43:12;;;;;;;;;;;;;;;;;;;;;
2023/04/30 21:14:44;;;;;;;7.53;4.03;;;3.70;99.90;;;;;;9442519;24;20268;-68
2023/04/30 21:19:43;;;;;;;;;;;;;;;;;;;;;
2023/04/30 21:29:17;;;;;;;7.17;4.43;;;3.30;99.90;;;;;;9350777;25;20192;-68
2023/04/30 21:34:17;;;;;;;6.23;3.53;;;3.20;99.90;;;;;;9435395;24;20217;-64
2023/04/30 21:43:50;;;;;;;5.73;3.70;;;3.00;1.00;;;;;;9525891;24;20191;-68
2023/04/30 21:52:54;;;;;;;4.80;3.10;;;2.80;1.00;;;;;;9627007;24;20212;-67
2023/04/30 21:57:47;;;;;;;8.20;4.03;;;2.70;1.00;;;;;;9670700;23;20180;-68
2023/04/30 22:01:46;;;;;;;4.60;3.70;;;2.60;1.00;;;;;;9832586;23;20164;-64
2023/04/30 22:07:18;;;;;;;;;;;;;;;;;;;;;
2023/04/30 22:11:21;;;;;;;7.57;3.90;;;2.40;1.00;;;;;;10017707;23;20172;-68
2023/04/30 22:15:50;;;;;;;4.77;3.27;;;2.30;1.00;;;;;;9924522;23;20189;-68
2023/04/30 22:40:51;;;;;;;6.57;3.10;;;1.90;99.90;;;;;;9733462;24;20172;-63
2023/04/30 22:55:45;;;;;;;4.83;2.83;;;1.60;99.90;;;;;;9501068;24;20359;-67
2023/04/30 23:31:53;;;;;;;;;;;;;;;;;;;;;
2023/04/30 23:57:57;;;;;;;;;;;;;;;;;;;;;
